createdAt,value
2018-08-16T00:00:58.957Z,75.87
2018-08-16T00:03:28.480Z,76.03
2018-08-16T00:05:58.496Z,75.57
2018-08-16T00:08:28.104Z,75.51
2018-08-16T00:10:57.655Z,76.19
2018-08-16T00:13:27.193Z,76.04
2018-08-16T00:15:56.708Z,75.97
2018-08-16T00:18:26.291Z,76.07
2018-08-16T00:20:55.868Z,76.13
2018-08-16T00:23:25.435Z,76.79
2018-08-16T00:25:54.964Z,76.34
2018-08-16T00:28:24.621Z,76.80
2018-08-16T00:30:54.213Z,77.02
2018-08-16T00:33:23.803Z,76.79
2018-08-16T00:35:53.444Z,76.85
2018-08-16T00:38:23.180Z,76.51
2018-08-16T00:40:52.801Z,76.59
2018-08-16T00:43:22.355Z,76.93
2018-08-16T00:45:51.942Z,77.00
2018-08-16T00:48:21.611Z,76.99
2018-08-16T00:50:51.222Z,76.86
2018-08-16T00:53:20.795Z,77.15
2018-08-16T00:55:50.441Z,77.74
2018-08-16T00:58:20.021Z,77.55
2018-08-16T01:00:49.756Z,77.64
2018-08-16T01:03:19.319Z,77.71
2018-08-16T01:05:48.936Z,77.97
2018-08-16T01:08:18.617Z,77.51
2018-08-16T01:10:48.392Z,77.69
2018-08-16T01:13:18.059Z,77.43
2018-08-16T01:15:47.816Z,77.83
2018-08-16T01:18:17.745Z,78.37
2018-08-16T01:20:47.421Z,77.90
2018-08-16T01:23:17.229Z,78.34
2018-08-16T01:25:46.889Z,78.38
2018-08-16T01:28:16.605Z,78.01
2018-08-16T01:30:46.330Z,78.18
2018-08-16T01:33:16.053Z,77.75
2018-08-16T01:35:45.819Z,78.30
2018-08-16T01:38:15.415Z,78.41
2018-08-16T01:40:45.142Z,77.92
2018-08-16T01:43:14.762Z,78.14
2018-08-16T01:45:44.444Z,77.97
2018-08-16T01:48:14.371Z,78.15
2018-08-16T01:50:44.013Z,78.37
2018-08-16T01:53:13.698Z,77.94
2018-08-16T01:55:43.305Z,78.37
2018-08-16T01:58:13.137Z,78.42
2018-08-16T02:00:42.813Z,77.78
2018-08-16T02:03:12.424Z,78.42
2018-08-16T02:05:42.221Z,78.14
2018-08-16T02:08:11.942Z,78.53
2018-08-16T02:10:41.640Z,78.83
2018-08-16T02:13:11.470Z,78.37
2018-08-16T02:15:41.224Z,79.12
2018-08-16T02:18:10.998Z,78.69
2018-08-16T02:20:40.601Z,78.91
2018-08-16T02:23:10.290Z,78.78
2018-08-16T02:25:39.922Z,78.93
2018-08-16T02:28:09.624Z,79.02
2018-08-16T02:30:39.419Z,79.62
2018-08-16T02:33:09.562Z,79.46
2018-08-16T02:35:39.199Z,79.75
2018-08-16T02:38:08.847Z,79.20
2018-08-16T02:40:38.611Z,79.78
2018-08-16T02:43:08.234Z,79.98
2018-08-16T02:45:38.116Z,79.90
2018-08-16T02:48:07.725Z,79.84
2018-08-16T02:50:37.404Z,79.37
2018-08-16T02:53:07.254Z,79.56
2018-08-16T02:55:36.958Z,79.19
2018-08-16T02:58:06.634Z,79.86
2018-08-16T03:00:36.257Z,79.90
2018-08-16T03:03:06.131Z,79.52
2018-08-16T03:05:35.787Z,80.36
2018-08-16T03:08:05.449Z,80.16
2018-08-16T03:10:35.078Z,80.34
2018-08-16T03:13:04.769Z,80.66
2018-08-16T03:15:34.743Z,80.72
2018-08-16T03:18:04.420Z,80.61
2018-08-16T03:20:34.162Z,81.09
2018-08-16T03:23:03.817Z,80.67
2018-08-16T03:25:33.417Z,80.86
2018-08-16T03:28:03.034Z,81.58
2018-08-16T03:30:32.734Z,81.07
2018-08-16T03:33:02.474Z,81.17
2018-08-16T03:35:32.123Z,81.21
2018-08-16T03:38:01.933Z,81.34
2018-08-16T03:40:31.621Z,81.00
2018-08-16T03:43:01.219Z,81.63
2018-08-16T03:45:31.057Z,81.77
2018-08-16T03:48:00.641Z,81.82
2018-08-16T03:50:30.283Z,80.87
2018-08-16T03:52:59.903Z,80.86
2018-08-16T03:55:29.602Z,80.72
2018-08-16T03:57:59.306Z,80.62
2018-08-16T04:00:28.906Z,80.96
2018-08-16T04:02:58.472Z,80.96
2018-08-16T04:05:28.100Z,81.00
2018-08-16T04:07:57.810Z,80.29
2018-08-16T04:10:27.446Z,80.47
2018-08-16T04:12:57.045Z,80.49
2018-08-16T04:15:26.663Z,79.80
2018-08-16T04:17:56.281Z,79.85
2018-08-16T04:20:25.859Z,78.95
2018-08-16T04:22:55.486Z,79.74
2018-08-16T04:25:25.175Z,78.72
2018-08-16T04:27:54.799Z,79.13
2018-08-16T04:30:24.491Z,77.97
2018-08-16T04:32:54.190Z,75.20
2018-08-16T04:35:24.047Z,72.52
2018-08-16T04:37:53.873Z,70.09
2018-08-16T04:40:23.617Z,67.96
2018-08-16T04:42:53.373Z,66.63
2018-08-16T04:45:22.982Z,64.39
2018-08-16T04:47:52.590Z,62.26
2018-08-16T04:50:22.249Z,60.90
2018-08-16T04:52:51.860Z,58.94
2018-08-16T04:55:21.601Z,57.20
2018-08-16T04:57:51.258Z,55.91
2018-08-16T05:00:20.989Z,54.08
2018-08-16T05:02:50.659Z,53.84
2018-08-16T05:05:20.370Z,52.19
2018-08-16T05:07:49.984Z,50.99
2018-08-16T05:10:19.644Z,50.02
2018-08-16T05:12:49.251Z,49.65
2018-08-16T05:15:18.984Z,48.03
2018-08-16T05:17:48.578Z,47.98
2018-08-16T05:20:18.202Z,46.28
2018-08-16T05:22:47.838Z,46.38
2018-08-16T05:25:17.441Z,44.86
2018-08-16T05:27:47.033Z,45.05
2018-08-16T05:30:16.719Z,43.44
2018-08-16T05:32:46.327Z,43.15
2018-08-16T05:35:15.924Z,42.11
2018-08-16T05:37:45.571Z,41.48
2018-08-16T05:40:15.253Z,41.59
2018-08-16T05:42:44.852Z,40.21
2018-08-16T05:45:14.524Z,40.17
2018-08-16T05:47:44.191Z,39.70
2018-08-16T05:50:13.972Z,38.97
2018-08-16T05:52:43.616Z,37.78
2018-08-16T05:55:13.230Z,38.00
2018-08-16T05:57:43.382Z,37.60
2018-08-16T06:00:14.435Z,37.37
2018-08-16T06:02:44.113Z,36.38
2018-08-16T06:05:13.838Z,35.35
2018-08-16T06:07:43.730Z,34.58
2018-08-16T06:10:13.346Z,34.81
2018-08-16T06:12:43.052Z,34.44
2018-08-16T06:15:12.753Z,33.88
2018-08-16T06:17:42.346Z,33.29
2018-08-16T06:20:12.782Z,32.89
2018-08-16T06:22:42.484Z,32.00
2018-08-16T06:25:13.894Z,32.03
2018-08-16T06:27:44.292Z,31.47
2018-08-16T06:30:17.268Z,30.69
2018-08-16T06:32:47.177Z,30.50
2018-08-16T06:35:17.019Z,29.98
2018-08-16T06:37:46.767Z,30.06
2018-08-16T06:40:17.930Z,29.64
2018-08-16T06:42:48.517Z,29.56
2018-08-16T06:45:18.263Z,29.36
2018-08-16T06:47:47.918Z,29.47
2018-08-16T06:50:17.643Z,28.79
2018-08-16T06:52:47.322Z,29.29
2018-08-16T06:55:17.103Z,29.14
2018-08-16T06:57:46.899Z,28.72
2018-08-16T07:00:16.710Z,29.35
2018-08-16T07:02:46.437Z,28.92
2018-08-16T07:05:16.326Z,27.90
2018-08-16T07:07:46.027Z,27.98
2018-08-16T07:10:15.762Z,28.19
2018-08-16T07:12:45.434Z,28.19
2018-08-16T07:15:16.277Z,27.85
2018-08-16T07:17:46.067Z,28.07
2018-08-16T07:20:15.749Z,28.56
2018-08-16T07:22:45.374Z,28.50
2018-08-16T07:25:14.962Z,28.75
2018-08-16T07:27:44.581Z,28.61
2018-08-16T07:30:14.208Z,27.94
2018-08-16T07:32:43.802Z,28.43
2018-08-16T07:35:13.493Z,28.36
2018-08-16T07:37:43.106Z,28.45
2018-08-16T07:40:12.797Z,28.83
2018-08-16T07:42:42.449Z,27.83
2018-08-16T07:45:12.425Z,27.59
2018-08-16T07:47:42.034Z,28.00
2018-08-16T07:50:12.105Z,28.04
2018-08-16T07:52:41.954Z,27.60
2018-08-16T07:55:11.918Z,27.62
2018-08-16T07:57:41.638Z,26.88
2018-08-16T08:00:17.281Z,27.31
2018-08-16T08:02:47.350Z,26.68
2018-08-16T08:05:17.025Z,25.78
2018-08-16T08:07:46.680Z,25.63
2018-08-16T08:10:16.378Z,25.51
2018-08-16T08:12:46.060Z,25.43
2018-08-16T08:15:16.225Z,25.36
2018-08-16T08:17:45.878Z,25.70
2018-08-16T08:20:16.937Z,26.08
2018-08-16T08:22:46.544Z,25.83
2018-08-16T08:25:16.372Z,25.20
2018-08-16T08:27:46.055Z,24.84
2018-08-16T08:30:17.153Z,24.77
2018-08-16T08:32:46.758Z,24.49
2018-08-16T08:35:16.543Z,24.34
2018-08-16T08:38:02.769Z,24.52
2018-08-16T08:40:32.402Z,23.73
2018-08-16T08:43:02.088Z,23.12
2018-08-16T08:45:31.767Z,23.31
2018-08-16T08:48:01.460Z,23.14
2018-08-16T08:50:31.197Z,23.24
2018-08-16T08:53:17.963Z,23.01
2018-08-16T08:56:04.560Z,22.94
2018-08-16T08:58:52.631Z,22.93
2018-08-16T09:01:22.277Z,22.21
2018-08-16T09:03:54.955Z,21.10
2018-08-16T09:06:24.602Z,20.73
2018-08-16T09:08:54.290Z,20.87
2018-08-16T09:12:39.511Z,20.62
2018-08-16T09:15:26.077Z,20.62
2018-08-16T09:17:55.688Z,20.58
2018-08-16T09:20:25.313Z,20.25
2018-08-16T09:22:54.952Z,20.12
2018-08-16T09:25:24.613Z,19.74
2018-08-16T09:27:54.263Z,20.00
2018-08-16T09:30:41.688Z,20.44
2018-08-16T09:33:28.159Z,20.63
2018-08-16T09:35:57.841Z,20.86
2018-08-16T09:38:27.435Z,20.31
2018-08-16T09:40:57.061Z,20.12
2018-08-16T09:43:26.685Z,19.58
2018-08-16T09:47:11.613Z,19.09
2018-08-16T09:49:44.106Z,18.85
2018-08-16T09:52:14.442Z,18.56
2018-08-16T09:54:44.109Z,18.61
2018-08-16T09:57:15.065Z,18.62
2018-08-16T09:59:45.314Z,18.67
2018-08-16T10:02:17.127Z,18.64
2018-08-16T10:04:46.650Z,18.53
2018-08-16T10:07:16.279Z,18.48
2018-08-16T10:09:45.937Z,18.41
2018-08-16T10:12:15.532Z,18.17
2018-08-16T10:14:45.165Z,18.09
2018-08-16T10:17:14.797Z,18.10
2018-08-16T10:19:44.485Z,18.10
2018-08-16T10:22:14.179Z,18.38
2018-08-16T10:24:43.838Z,18.64
2018-08-16T10:27:13.498Z,19.41
2018-08-16T10:29:43.256Z,19.73
2018-08-16T10:32:12.941Z,19.36
2018-08-16T10:34:42.562Z,19.92
2018-08-16T10:37:12.431Z,19.95
2018-08-16T10:39:42.027Z,20.58
2018-08-16T10:42:11.606Z,20.84
2018-08-16T10:44:41.245Z,21.29
2018-08-16T10:47:10.865Z,21.28
2018-08-16T10:49:40.492Z,21.34
2018-08-16T10:52:10.132Z,21.50
2018-08-16T10:54:39.763Z,22.35
2018-08-16T10:57:09.494Z,22.83
2018-08-16T10:59:39.097Z,23.38
2018-08-16T11:02:08.769Z,23.32
2018-08-16T11:04:38.470Z,24.05
2018-08-16T11:07:08.168Z,24.49
2018-08-16T11:09:37.782Z,23.96
2018-08-16T11:12:07.634Z,24.19
2018-08-16T11:14:37.318Z,24.40
2018-08-16T11:17:07.208Z,24.84
2018-08-16T11:19:36.830Z,25.14
2018-08-16T11:22:07.006Z,25.51
2018-08-16T11:24:36.635Z,25.82
2018-08-16T11:27:07.098Z,26.99
2018-08-16T11:29:36.706Z,27.00
2018-08-16T11:32:06.329Z,27.03
2018-08-16T11:34:36.001Z,28.24
2018-08-16T11:37:05.970Z,28.51
2018-08-16T11:39:35.550Z,29.42
2018-08-16T11:42:05.175Z,29.67
2018-08-16T11:44:34.809Z,30.24
2018-08-16T11:47:04.447Z,30.11
2018-08-16T11:49:34.055Z,31.91
2018-08-16T11:52:03.732Z,31.94
2018-08-16T11:54:33.378Z,32.73
2018-08-16T11:57:03.009Z,32.19
2018-08-16T11:59:32.603Z,32.96
2018-08-16T12:02:02.230Z,32.01
2018-08-16T12:04:31.848Z,32.62
2018-08-16T12:07:01.443Z,32.17
2018-08-16T12:09:31.054Z,32.70
2018-08-16T12:12:00.721Z,32.74
2018-08-16T12:14:30.398Z,33.56
2018-08-16T12:17:00.028Z,33.26
2018-08-16T12:19:29.707Z,33.39
2018-08-16T12:21:59.486Z,32.90
2018-08-16T12:24:29.131Z,33.88
2018-08-16T12:26:58.918Z,33.87
2018-08-16T12:29:28.602Z,33.60
2018-08-16T12:31:58.306Z,34.51
2018-08-16T12:34:27.922Z,33.78
2018-08-16T12:36:57.541Z,34.30
2018-08-16T12:39:27.142Z,34.41
2018-08-16T12:41:56.785Z,33.73
2018-08-16T12:44:26.744Z,33.15
2018-08-16T12:46:56.271Z,33.75
2018-08-16T12:49:25.910Z,34.58
2018-08-16T12:51:55.527Z,34.33
2018-08-16T12:54:25.354Z,34.27
2018-08-16T12:56:55.075Z,34.26
2018-08-16T12:59:24.834Z,34.22
2018-08-16T13:01:54.474Z,33.71
2018-08-16T13:04:24.126Z,33.34
2018-08-16T13:06:53.766Z,33.59
2018-08-16T13:09:23.447Z,34.48
2018-08-16T13:11:52.998Z,34.29
2018-08-16T13:14:22.681Z,33.83
2018-08-16T13:16:52.355Z,34.19
2018-08-16T13:19:21.937Z,33.69
2018-08-16T13:21:51.606Z,33.99
2018-08-16T13:24:21.414Z,33.60
2018-08-16T13:26:51.056Z,33.05
2018-08-16T13:29:20.637Z,33.04
2018-08-16T13:31:50.247Z,33.78
2018-08-16T13:34:19.854Z,33.49
2018-08-16T13:36:49.455Z,33.10
2018-08-16T13:39:19.049Z,33.12
2018-08-16T13:41:50.640Z,33.59
2018-08-16T13:44:20.258Z,33.36
2018-08-16T13:46:49.926Z,33.90
2018-08-16T13:49:19.541Z,33.71
2018-08-16T13:51:49.139Z,32.77
2018-08-16T13:54:18.868Z,32.61
2018-08-16T13:56:48.497Z,33.67
2018-08-16T13:59:18.127Z,33.00
2018-08-16T14:01:47.908Z,33.04
2018-08-16T14:04:17.487Z,33.64
2018-08-16T14:06:47.110Z,33.22
2018-08-16T14:09:16.698Z,33.35
2018-08-16T14:11:46.298Z,32.85
2018-08-16T14:14:15.902Z,32.92
2018-08-16T14:16:45.521Z,33.40
2018-08-16T14:19:15.151Z,32.45
2018-08-16T14:21:44.744Z,32.33
2018-08-16T14:24:14.405Z,33.40
2018-08-16T14:26:44.202Z,32.31
2018-08-16T14:29:13.928Z,33.23
2018-08-16T14:31:43.531Z,33.48
2018-08-16T14:34:13.166Z,32.54
2018-08-16T14:36:42.816Z,33.21
2018-08-16T14:39:13.188Z,32.57
2018-08-16T14:41:43.073Z,32.33
2018-08-16T14:44:12.703Z,32.80
2018-08-16T14:46:42.319Z,32.32
2018-08-16T14:49:11.955Z,33.43
2018-08-16T14:51:41.740Z,32.34
2018-08-16T14:54:11.414Z,32.25
2018-08-16T14:56:41.063Z,32.33
2018-08-16T14:59:10.702Z,32.20
2018-08-16T15:01:40.400Z,33.31
2018-08-16T15:04:10.026Z,33.15
2018-08-16T15:06:39.613Z,32.73
2018-08-16T15:09:11.852Z,32.23
2018-08-16T15:11:41.854Z,32.81
2018-08-16T15:14:11.737Z,33.00
2018-08-16T15:16:41.322Z,33.13
2018-08-16T15:19:11.099Z,33.29
2018-08-16T15:21:40.693Z,33.06
2018-08-16T15:24:10.375Z,33.52
2018-08-16T15:26:39.995Z,32.41
2018-08-16T15:29:09.585Z,32.98
2018-08-16T15:31:39.230Z,33.19
2018-08-16T15:34:09.245Z,32.56
2018-08-16T15:36:39.020Z,33.35
2018-08-16T15:39:09.810Z,32.86
2018-08-16T15:41:39.646Z,32.83
2018-08-16T15:44:10.158Z,32.82
2018-08-16T15:46:40.162Z,32.58
2018-08-16T15:49:09.788Z,33.46
2018-08-16T15:51:39.442Z,33.44
2018-08-16T15:54:09.082Z,32.83
2018-08-16T15:56:38.685Z,33.42
2018-08-16T15:59:08.575Z,33.78
2018-08-16T16:01:38.269Z,33.22
2018-08-16T16:04:08.142Z,33.82
2018-08-16T16:06:37.790Z,32.64
2018-08-16T16:09:09.934Z,33.43
2018-08-16T16:11:39.669Z,33.01
2018-08-16T16:14:09.460Z,32.82
2018-08-16T16:16:40.040Z,33.21
2018-08-16T16:19:09.659Z,33.15
2018-08-16T16:21:39.456Z,32.83
2018-08-16T16:24:09.063Z,33.02
2018-08-16T16:26:38.649Z,33.70
2018-08-16T16:29:08.267Z,33.92
2018-08-16T16:31:37.859Z,33.93
2018-08-16T16:34:08.047Z,33.60
2018-08-16T16:36:37.778Z,33.63
2018-08-16T16:39:11.383Z,33.73
2018-08-16T16:41:41.359Z,34.72
2018-08-16T16:44:10.953Z,33.90
2018-08-16T16:46:40.625Z,33.98
2018-08-16T16:49:10.253Z,34.20
2018-08-16T16:51:39.921Z,34.43
2018-08-16T16:54:09.620Z,34.32
2018-08-16T16:56:39.461Z,34.99
2018-08-16T16:59:09.148Z,35.06
2018-08-16T17:01:38.818Z,35.15
2018-08-16T17:04:08.535Z,35.66
2018-08-16T17:06:38.452Z,34.66
2018-08-16T17:09:10.718Z,34.75
2018-08-16T17:11:40.672Z,34.91
2018-08-16T17:14:10.495Z,35.13
2018-08-16T17:16:40.404Z,35.33
2018-08-16T17:19:10.293Z,35.25
2018-08-16T17:21:39.926Z,36.03
2018-08-16T17:24:09.956Z,35.35
2018-08-16T17:26:39.566Z,35.63
2018-08-16T17:29:09.453Z,35.81
2018-08-16T17:31:39.026Z,36.50
2018-08-16T17:34:08.637Z,35.97
2018-08-16T17:36:38.370Z,36.54
2018-08-16T17:39:09.083Z,36.64
2018-08-16T17:41:38.746Z,37.08
2018-08-16T17:44:08.712Z,36.78
2018-08-16T17:46:38.331Z,37.75
2018-08-16T17:49:07.950Z,36.90
2018-08-16T17:51:37.538Z,37.22
2018-08-16T17:54:07.332Z,37.83
2018-08-16T17:56:36.890Z,37.54
2018-08-16T17:59:06.581Z,38.45
2018-08-16T18:01:36.192Z,38.61
2018-08-16T18:04:05.899Z,38.57
2018-08-16T18:06:35.570Z,38.86
2018-08-16T18:09:06.967Z,38.94
2018-08-16T18:11:36.588Z,38.53
2018-08-16T18:14:06.246Z,38.73
2018-08-16T18:16:35.946Z,38.75
2018-08-16T18:19:05.703Z,39.82
2018-08-16T18:21:35.512Z,40.18
2018-08-16T18:24:05.346Z,40.33
2018-08-16T18:29:19.933Z,40.82
2018-08-16T18:31:49.917Z,40.40
2018-08-16T18:34:20.226Z,41.35
2018-08-16T18:36:49.996Z,41.32
2018-08-16T18:39:19.718Z,41.72
2018-08-16T18:41:49.310Z,41.47
2018-08-16T18:44:18.903Z,42.23
2018-08-16T18:46:48.675Z,42.40
2018-08-16T18:49:18.401Z,41.79
2018-08-16T18:51:47.985Z,41.96
2018-08-16T18:54:17.638Z,42.49
2018-08-16T18:56:47.415Z,42.77
2018-08-16T18:59:17.022Z,42.78
2018-08-16T19:01:46.661Z,43.06
2018-08-16T19:04:16.352Z,42.47
2018-08-16T19:06:45.990Z,43.37
2018-08-16T19:09:15.597Z,42.68
2018-08-16T19:11:45.210Z,43.59
2018-08-16T19:14:14.765Z,43.21
2018-08-16T19:16:44.478Z,43.40
2018-08-16T19:19:14.074Z,43.19
2018-08-16T19:21:43.893Z,44.11
2018-08-16T19:24:13.466Z,44.11
2018-08-16T19:26:43.090Z,43.52
2018-08-16T19:29:12.775Z,44.21
2018-08-16T19:31:42.366Z,43.81
2018-08-16T19:34:12.073Z,44.87
2018-08-16T19:36:41.637Z,44.32
2018-08-16T19:39:12.799Z,44.90
2018-08-16T19:41:42.397Z,45.01
2018-08-16T19:44:11.979Z,44.33
2018-08-16T19:46:41.698Z,44.89
2018-08-16T19:49:11.452Z,44.63
2018-08-16T19:51:41.098Z,44.59
2018-08-16T19:54:10.758Z,45.51
2018-08-16T19:56:40.422Z,44.86
2018-08-16T19:59:10.049Z,45.84
2018-08-16T20:01:39.775Z,45.38
2018-08-16T20:04:09.412Z,45.36
2018-08-16T20:06:39.365Z,45.97
2018-08-16T20:09:10.938Z,45.59
2018-08-16T20:11:40.560Z,45.58
2018-08-16T20:14:10.200Z,45.89
2018-08-16T20:16:39.940Z,46.56
2018-08-16T20:19:09.526Z,45.53
2018-08-16T20:21:39.134Z,45.99
2018-08-16T20:24:08.794Z,46.73
2018-08-16T20:26:38.403Z,46.86
2018-08-16T20:29:08.001Z,46.40
2018-08-16T20:31:37.632Z,47.08
2018-08-16T20:34:07.706Z,46.76
2018-08-16T20:36:37.313Z,46.58
2018-08-16T20:39:09.128Z,46.54
2018-08-16T20:41:38.734Z,46.53
2018-08-16T20:44:08.742Z,46.63
2018-08-16T20:46:38.421Z,46.84
2018-08-16T20:49:08.424Z,47.41
2018-08-16T20:51:38.270Z,46.97
2018-08-16T20:54:07.894Z,47.45
2018-08-16T20:56:37.514Z,47.65
2018-08-16T20:59:07.543Z,47.50
2018-08-16T21:01:37.152Z,47.50
2018-08-16T21:04:06.921Z,47.21
2018-08-16T21:06:36.628Z,47.47
2018-08-16T21:09:09.311Z,47.14
2018-08-16T21:11:39.314Z,47.48
2018-08-16T21:14:09.149Z,47.20
2018-08-16T21:16:38.836Z,48.07
2018-08-16T21:19:08.417Z,48.35
2018-08-16T21:21:38.045Z,47.95
2018-08-16T21:24:07.911Z,48.39
2018-08-16T21:26:37.593Z,47.98
2018-08-16T21:29:07.201Z,47.88
2018-08-16T21:31:36.960Z,48.16
2018-08-16T21:34:06.728Z,48.80
2018-08-16T21:36:36.336Z,48.87
2018-08-16T21:39:09.393Z,48.97
2018-08-16T21:41:39.213Z,48.34
2018-08-16T21:44:09.713Z,48.63
2018-08-16T21:46:39.290Z,48.59
2018-08-16T21:49:08.933Z,49.19
2018-08-16T21:51:38.594Z,49.23
2018-08-16T21:54:08.551Z,49.63
2018-08-16T21:56:38.361Z,49.33
2018-08-16T21:59:07.997Z,49.06
2018-08-16T22:01:37.609Z,49.12
2018-08-16T22:04:07.207Z,49.59
2018-08-16T22:06:53.838Z,50.10
2018-08-16T22:09:23.489Z,49.52
2018-08-16T22:11:53.073Z,50.47
2018-08-16T22:14:22.648Z,49.80
2018-08-16T22:16:52.230Z,50.33
2018-08-16T22:19:21.799Z,50.48
2018-08-16T22:21:51.389Z,50.10
2018-08-16T22:24:20.978Z,50.44
2018-08-16T22:26:50.576Z,50.46
2018-08-16T22:29:20.158Z,50.22
2018-08-16T22:31:49.705Z,51.18
2018-08-16T22:34:19.294Z,50.41
2018-08-16T22:36:48.848Z,50.75
2018-08-16T22:39:18.477Z,50.75
2018-08-16T22:41:48.035Z,51.34
2018-08-16T22:44:17.622Z,51.18
2018-08-16T22:46:47.207Z,51.51
2018-08-16T22:49:16.810Z,50.90
2018-08-16T22:51:46.433Z,51.62
2018-08-16T22:54:15.926Z,51.17
2018-08-16T22:56:45.585Z,50.96
2018-08-16T22:59:15.154Z,51.27
2018-08-16T23:01:44.782Z,51.85
2018-08-16T23:04:14.346Z,51.85
2018-08-16T23:06:43.981Z,51.32
2018-08-16T23:09:13.668Z,51.46
2018-08-16T23:11:43.246Z,51.53
2018-08-16T23:14:12.924Z,51.79
2018-08-16T23:16:42.502Z,51.85
2018-08-16T23:19:12.145Z,51.95
2018-08-16T23:21:41.702Z,52.60
2018-08-16T23:24:11.228Z,52.55
2018-08-16T23:26:40.863Z,52.18
2018-08-16T23:29:10.605Z,52.23
2018-08-16T23:31:40.333Z,52.90
2018-08-16T23:34:09.936Z,52.22
2018-08-16T23:36:39.531Z,52.92
2018-08-16T23:39:09.246Z,52.23
2018-08-16T23:41:38.837Z,52.45
2018-08-16T23:44:08.527Z,53.00
2018-08-16T23:46:38.164Z,52.22
2018-08-16T23:49:07.828Z,52.96
2018-08-16T23:51:37.437Z,52.57
2018-08-16T23:54:07.083Z,53.14
2018-08-16T23:56:36.793Z,52.50
2018-08-16T23:59:06.393Z,52.84
